sensor_id;sensor_type;location;lat;lon;timestamp;pressure;altitude;pressure_sealevel;temperature;humidity
51715;BME280;39115;59.332;18.034;2023-02-13T00:00:47;101877.78;;;2.95;74.75
51715;BME280;39115;59.332;18.034;2023-02-13T00:03:08;101882.97;;;2.96;74.62
51715;BME280;39115;59.332;18.034;2023-02-13T00:05:28;101880.34;;;2.96;74.67
51715;BME280;39115;59.332;18.034;2023-02-13T00:07:49;101880.34;;;2.96;74.67
51715;BME280;39115;59.332;18.034;2023-02-13T00:10:10;101875.97;;;2.97;74.77
51715;BME280;39115;59.332;18.034;2023-02-13T00:12:30;101875.97;;;2.97;75.04
51715;BME280;39115;59.332;18.034;2023-02-13T00:14:51;101882.94;;;2.98;74.71
51715;BME280;39115;59.332;18.034;2023-02-13T00:17:11;101891.66;;;2.98;74.74
51715;BME280;39115;59.332;18.034;2023-02-13T00:19:32;101873.31;;;2.97;74.46
51715;BME280;39115;59.332;18.034;2023-02-13T00:21:53;101883.78;;;2.98;74.81
51715;BME280;39115;59.332;18.034;2023-02-13T00:24:13;101874.13;;;2.99;74.90
51715;BME280;39115;59.332;18.034;2023-02-13T00:26:34;101882.06;;;2.97;74.69
51715;BME280;39115;59.332;18.034;2023-02-13T00:28:55;101875.88;;;2.98;74.75
51715;BME280;39115;59.332;18.034;2023-02-13T00:31:18;101869.81;;;2.96;74.56
51715;BME280;39115;59.332;18.034;2023-02-13T00:33:39;101873.25;;;2.98;74.50
51715;BME280;39115;59.332;18.034;2023-02-13T00:36:14;101875.88;;;2.98;74.65
51715;BME280;39115;59.332;18.034;2023-02-13T00:38:36;101867.09;;;2.99;74.68
51715;BME280;39115;59.332;18.034;2023-02-13T00:40:57;101868.81;;;3.00;74.79
51715;BME280;39115;59.332;18.034;2023-02-13T00:43:17;101868.81;;;3.00;74.68
51715;BME280;39115;59.332;18.034;2023-02-13T00:45:38;101855.66;;;3.00;74.42
51715;BME280;39115;59.332;18.034;2023-02-13T00:47:58;101850.38;;;3.00;74.59
51715;BME280;39115;59.332;18.034;2023-02-13T00:50:19;101860.00;;;3.02;74.62
51715;BME280;39115;59.332;18.034;2023-02-13T00:52:40;101853.88;;;3.01;74.68
51715;BME280;39115;59.332;18.034;2023-02-13T00:55:00;101853.88;;;3.01;74.69
51715;BME280;39115;59.332;18.034;2023-02-13T00:57:21;101851.22;;;3.01;74.47
51715;BME280;39115;59.332;18.034;2023-02-13T00:59:41;101845.13;;;3.00;74.54
51715;BME280;39115;59.332;18.034;2023-02-13T01:02:02;101843.41;;;2.99;74.51
51715;BME280;39115;59.332;18.034;2023-02-13T01:04:22;101843.41;;;2.99;74.56
51715;BME280;39115;59.332;18.034;2023-02-13T01:06:43;101835.59;;;2.98;74.45
51715;BME280;39115;59.332;18.034;2023-02-13T01:09:03;101831.22;;;2.97;74.51
51715;BME280;39115;59.332;18.034;2023-02-13T01:11:24;101846.16;;;2.96;74.64
51715;BME280;39115;59.332;18.034;2023-02-13T01:13:45;101835.69;;;2.95;74.73
51715;BME280;39115;59.332;18.034;2023-02-13T01:16:06;101843.66;;;2.93;74.46
51715;BME280;39115;59.332;18.034;2023-02-13T01:18:26;101833.13;;;2.93;74.64
51715;BME280;39115;59.332;18.034;2023-02-13T01:21:17;101841.94;;;2.92;74.72
51715;BME280;39115;59.332;18.034;2023-02-13T01:23:38;101835.88;;;2.90;74.65
51715;BME280;39115;59.332;18.034;2023-02-13T01:25:59;101824.50;;;2.90;74.66
51715;BME280;39115;59.332;18.034;2023-02-13T01:28:19;101821.06;;;2.88;74.63
51715;BME280;39115;59.332;18.034;2023-02-13T01:30:40;101823.69;;;2.88;74.81
51715;BME280;39115;59.332;18.034;2023-02-13T01:33:00;101826.31;;;2.88;74.74
51715;BME280;39115;59.332;18.034;2023-02-13T01:35:21;101828.94;;;2.88;74.50
51715;BME280;39115;59.332;18.034;2023-02-13T01:37:42;101831.59;;;2.88;74.59
51715;BME280;39115;59.332;18.034;2023-02-13T01:40:03;101825.47;;;2.87;74.69
51715;BME280;39115;59.332;18.034;2023-02-13T01:42:27;101833.41;;;2.85;74.89
51715;BME280;39115;59.332;18.034;2023-02-13T01:44:56;101831.69;;;2.84;74.63
51715;BME280;39115;59.332;18.034;2023-02-13T01:50:40;101823.03;;;2.82;74.69
51715;BME280;39115;59.332;18.034;2023-02-13T01:53:11;101818.75;;;2.80;74.84
51715;BME280;39115;59.332;18.034;2023-02-13T01:55:40;101813.47;;;2.80;74.74
51715;BME280;39115;59.332;18.034;2023-02-13T01:58:08;101811.75;;;2.79;74.79
51715;BME280;39115;59.332;18.034;2023-02-13T02:00:31;101817.03;;;2.79;74.94
51715;BME280;39115;59.332;18.034;2023-02-13T02:03:04;101819.66;;;2.79;74.87
51715;BME280;39115;59.332;18.034;2023-02-13T02:05:28;101821.47;;;2.77;74.91
51715;BME280;39115;59.332;18.034;2023-02-13T02:07:50;101828.44;;;2.78;74.95
51715;BME280;39115;59.332;18.034;2023-02-13T02:10:15;101818.78;;;2.78;74.69
51715;BME280;39115;59.332;18.034;2023-02-13T02:12:57;101824.91;;;2.79;74.85
51715;BME280;39115;59.332;18.034;2023-02-13T02:15:20;101819.66;;;2.79;74.84
51715;BME280;39115;59.332;18.034;2023-02-13T02:17:41;101828.31;;;2.81;74.77
51715;BME280;39115;59.332;18.034;2023-02-13T02:20:44;101825.66;;;2.82;74.84
51715;BME280;39115;59.332;18.034;2023-02-13T02:39:03;101813.25;;;2.86;74.83
51715;BME280;39115;59.332;18.034;2023-02-13T02:41:40;101807.97;;;2.86;74.87
51715;BME280;39115;59.332;18.034;2023-02-13T02:46:46;101807.97;;;2.86;74.81
51715;BME280;39115;59.332;18.034;2023-02-13T02:49:34;101814.97;;;2.87;74.82
51715;BME280;39115;59.332;18.034;2023-02-13T02:52:27;101813.16;;;2.88;74.83
51715;BME280;39115;59.332;18.034;2023-02-13T02:54:58;101828.09;;;2.87;74.87
51715;BME280;39115;59.332;18.034;2023-02-13T02:57:30;101825.47;;;2.87;74.80
51715;BME280;39115;59.332;18.034;2023-02-13T03:00:11;101819.28;;;2.88;74.76
51715;BME280;39115;59.332;18.034;2023-02-13T03:02:50;101822.78;;;2.89;74.75
51715;BME280;39115;59.332;18.034;2023-02-13T03:05:31;101823.59;;;2.91;74.95
51715;BME280;39115;59.332;18.034;2023-02-13T03:08:13;101814.88;;;2.89;74.95
51715;BME280;39115;59.332;18.034;2023-02-13T03:10:35;101811.38;;;2.88;74.86
51715;BME280;39115;59.332;18.034;2023-02-13T03:13:30;101817.44;;;2.90;74.57
51715;BME280;39115;59.332;18.034;2023-02-13T03:15:56;101812.19;;;2.90;74.91
51715;BME280;39115;59.332;18.034;2023-02-13T03:18:55;101818.31;;;2.91;74.65
51715;BME280;39115;59.332;18.034;2023-02-13T03:22:01;101803.38;;;2.91;74.81
51715;BME280;39115;59.332;18.034;2023-02-13T03:25:11;101803.31;;;2.93;74.62
51715;BME280;39115;59.332;18.034;2023-02-13T03:31:12;101804.19;;;2.93;74.72
51715;BME280;39115;59.332;18.034;2023-02-13T03:39:46;101808.53;;;2.94;74.51
51715;BME280;39115;59.332;18.034;2023-02-13T03:42:31;101818.16;;;2.95;74.80
51715;BME280;39115;59.332;18.034;2023-02-13T03:44:58;101817.28;;;2.95;74.60
51715;BME280;39115;59.332;18.034;2023-02-13T03:47:40;101807.63;;;2.95;74.69
51715;BME280;39115;59.332;18.034;2023-02-13T03:50:03;101801.44;;;2.96;74.75
51715;BME280;39115;59.332;18.034;2023-02-13T03:55:00;101806.66;;;2.98;74.53
51715;BME280;39115;59.332;18.034;2023-02-13T03:57:43;101798.75;;;2.98;74.48
51715;BME280;39115;59.332;18.034;2023-02-13T04:00:24;101787.34;;;2.97;74.51
51715;BME280;39115;59.332;18.034;2023-02-13T04:02:56;101785.59;;;2.98;74.51
51715;BME280;39115;59.332;18.034;2023-02-13T04:05:24;101794.41;;;2.97;74.66
51715;BME280;39115;59.332;18.034;2023-02-13T04:07:45;101786.50;;;2.97;74.47
51715;BME280;39115;59.332;18.034;2023-02-13T04:10:12;101799.66;;;2.97;74.63
51715;BME280;39115;59.332;18.034;2023-02-13T04:12:59;101790.91;;;2.96;74.48
51715;BME280;39115;59.332;18.034;2023-02-13T04:18:07;101791.84;;;2.95;74.56
51715;BME280;39115;59.332;18.034;2023-02-13T04:20:31;101790.06;;;2.96;74.16
51715;BME280;39115;59.332;18.034;2023-02-13T04:22:52;101791.84;;;2.95;74.35
51715;BME280;39115;59.332;18.034;2023-02-13T04:25:14;101794.47;;;2.95;75.03
51715;BME280;39115;59.332;18.034;2023-02-13T04:27:36;101799.75;;;2.95;74.48
51715;BME280;39115;59.332;18.034;2023-02-13T04:29:56;101807.56;;;2.97;74.58
51715;BME280;39115;59.332;18.034;2023-02-13T04:32:17;101792.69;;;2.96;74.45
51715;BME280;39115;59.332;18.034;2023-02-13T04:34:37;101790.06;;;2.96;74.54
51715;BME280;39115;59.332;18.034;2023-02-13T04:36:58;101783.00;;;2.96;74.61
51715;BME280;39115;59.332;18.034;2023-02-13T04:39:18;101783.00;;;2.96;74.71
51715;BME280;39115;59.332;18.034;2023-02-13T04:41:38;101788.28;;;2.96;74.71
51715;BME280;39115;59.332;18.034;2023-02-13T04:43:59;101779.53;;;2.96;74.65
51715;BME280;39115;59.332;18.034;2023-02-13T04:46:19;101781.31;;;2.95;74.86
51715;BME280;39115;59.332;18.034;2023-02-13T04:48:40;101776.06;;;2.95;74.64
51715;BME280;39115;59.332;18.034;2023-02-13T04:51:00;101787.44;;;2.96;74.72
51715;BME280;39115;59.332;18.034;2023-02-13T04:53:21;101791.78;;;2.97;74.48
51715;BME280;39115;59.332;18.034;2023-02-13T04:55:42;101793.50;;;2.98;74.58
51715;BME280;39115;59.332;18.034;2023-02-13T04:58:02;101792.63;;;2.97;74.47
51715;BME280;39115;59.332;18.034;2023-02-13T05:00:27;101784.81;;;2.96;74.66
51715;BME280;39115;59.332;18.034;2023-02-13T05:02:48;101789.22;;;2.95;74.66
51715;BME280;39115;59.332;18.034;2023-02-13T05:05:09;101787.50;;;2.94;74.60
51715;BME280;39115;59.332;18.034;2023-02-13T05:07:29;101791.03;;;2.93;74.64
51715;BME280;39115;59.332;18.034;2023-02-13T05:09:50;101785.78;;;2.93;74.39
51715;BME280;39115;59.332;18.034;2023-02-13T05:12:10;101787.53;;;2.93;74.53
51715;BME280;39115;59.332;18.034;2023-02-13T05:14:31;101798.06;;;2.93;74.54
51715;BME280;39115;59.332;18.034;2023-02-13T05:16:51;101797.22;;;2.92;74.51
51715;BME280;39115;59.332;18.034;2023-02-13T05:19:12;101806.84;;;2.92;74.44
51715;BME280;39115;59.332;18.034;2023-02-13T05:21:33;101802.47;;;2.92;74.58
51715;BME280;39115;59.332;18.034;2023-02-13T05:24:11;101810.38;;;2.92;74.55
51715;BME280;39115;59.332;18.034;2023-02-13T05:26:32;101806.81;;;2.93;74.40
51715;BME280;39115;59.332;18.034;2023-02-13T05:28:53;101815.56;;;2.94;74.42
51715;BME280;39115;59.332;18.034;2023-02-13T05:31:32;101810.25;;;2.95;74.59
51715;BME280;39115;59.332;18.034;2023-02-13T05:33:52;101811.09;;;2.96;74.29
51715;BME280;39115;59.332;18.034;2023-02-13T05:36:13;101805.84;;;2.96;74.69
51715;BME280;39115;59.332;18.034;2023-02-13T05:38:34;101812.81;;;2.97;74.50
51715;BME280;39115;59.332;18.034;2023-02-13T05:40:54;101825.97;;;2.97;74.45
51715;BME280;39115;59.332;18.034;2023-02-13T05:43:18;101819.91;;;2.95;74.48
51715;BME280;39115;59.332;18.034;2023-02-13T05:45:39;101826.88;;;2.96;74.55
51715;BME280;39115;59.332;18.034;2023-02-13T05:48:00;101820.78;;;2.95;74.74
51715;BME280;39115;59.332;18.034;2023-02-13T05:50:20;101819.06;;;2.94;74.30
51715;BME280;39115;59.332;18.034;2023-02-13T05:52:41;101819.91;;;2.95;74.52
51715;BME280;39115;59.332;18.034;2023-02-13T05:55:01;101821.69;;;2.94;74.63
51715;BME280;39115;59.332;18.034;2023-02-13T05:57:22;101831.34;;;2.94;74.63
51715;BME280;39115;59.332;18.034;2023-02-13T05:59:43;101835.75;;;2.93;74.40
51715;BME280;39115;59.332;18.034;2023-02-13T06:02:03;101856.81;;;2.93;74.57
51715;BME280;39115;59.332;18.034;2023-02-13T06:04:24;101863.81;;;2.93;74.52
51715;BME280;39115;59.332;18.034;2023-02-13T06:06:44;101856.81;;;2.93;74.50
51715;BME280;39115;59.332;18.034;2023-02-13T06:09:05;101854.09;;;2.95;74.29
51715;BME280;39115;59.332;18.034;2023-02-13T06:11:25;101854.97;;;2.95;74.10
51715;BME280;39115;59.332;18.034;2023-02-13T06:13:46;101858.53;;;2.94;74.38
51715;BME280;39115;59.332;18.034;2023-02-13T06:16:10;101862.88;;;2.95;74.45
51715;BME280;39115;59.332;18.034;2023-02-13T06:18:31;101866.44;;;2.93;74.69
51715;BME280;39115;59.332;18.034;2023-02-13T06:20:51;101876.13;;;2.92;74.64
51715;BME280;39115;59.332;18.034;2023-02-13T06:23:12;101885.84;;;2.90;74.55
51715;BME280;39115;59.332;18.034;2023-02-13T06:25:36;101893.72;;;2.90;74.58
51715;BME280;39115;59.332;18.034;2023-02-13T06:27:56;101899.06;;;2.89;74.51
51715;BME280;39115;59.332;18.034;2023-02-13T06:30:17;101896.34;;;2.90;74.51
51715;BME280;39115;59.332;18.034;2023-02-13T06:32:38;101873.66;;;2.88;74.49
51715;BME280;39115;59.332;18.034;2023-02-13T06:34:59;101879.75;;;2.88;74.76
51715;BME280;39115;59.332;18.034;2023-02-13T06:37:19;101871.88;;;2.88;74.60
51715;BME280;39115;59.332;18.034;2023-02-13T06:39:40;101871.03;;;2.88;74.49
51715;BME280;39115;59.332;18.034;2023-02-13T06:42:00;101865.84;;;2.86;74.47
51715;BME280;39115;59.332;18.034;2023-02-13T06:44:21;101874.63;;;2.85;74.18
51715;BME280;39115;59.332;18.034;2023-02-13T06:46:41;101874.63;;;2.85;74.49
51715;BME280;39115;59.332;18.034;2023-02-13T06:49:02;101869.38;;;2.85;74.81
51715;BME280;39115;59.332;18.034;2023-02-13T06:51:22;101870.28;;;2.84;74.43
51715;BME280;39115;59.332;18.034;2023-02-13T06:53:43;101864.19;;;2.83;74.65
51715;BME280;39115;59.332;18.034;2023-02-13T06:56:04;101859.84;;;2.82;74.36
51715;BME280;39115;59.332;18.034;2023-02-13T06:58:27;101865.94;;;2.83;74.42
51715;BME280;39115;59.332;18.034;2023-02-13T07:00:48;101871.13;;;2.84;74.51
51715;BME280;39115;59.332;18.034;2023-02-13T07:03:08;101863.25;;;2.84;74.58
51715;BME280;39115;59.332;18.034;2023-02-13T07:05:29;101870.22;;;2.85;74.44
51715;BME280;39115;59.332;18.034;2023-02-13T07:07:50;101876.34;;;2.86;74.38
51715;BME280;39115;59.332;18.034;2023-02-13T07:10:12;101879.91;;;2.85;74.59
51715;BME280;39115;59.332;18.034;2023-02-13T07:12:33;101888.59;;;2.87;74.50
51715;BME280;39115;59.332;18.034;2023-02-13T07:14:55;101883.34;;;2.87;74.69
51715;BME280;39115;59.332;18.034;2023-02-13T07:17:16;101881.63;;;2.86;74.52
51715;BME280;39115;59.332;18.034;2023-02-13T07:19:36;101880.72;;;2.87;74.52
51715;BME280;39115;59.332;18.034;2023-02-13T07:21:57;101870.13;;;2.89;74.48
51715;BME280;39115;59.332;18.034;2023-02-13T07:24:17;101866.63;;;2.88;74.39
51715;BME280;39115;59.332;18.034;2023-02-13T07:26:38;101867.50;;;2.89;74.41
51715;BME280;39115;59.332;18.034;2023-02-13T07:28:58;101858.69;;;2.90;74.09
51715;BME280;39115;59.332;18.034;2023-02-13T07:31:19;101863.03;;;2.91;74.33
51715;BME280;39115;59.332;18.034;2023-02-13T07:33:39;101867.44;;;2.90;74.26
51715;BME280;39115;59.332;18.034;2023-02-13T07:36:00;101872.63;;;2.92;74.30
51715;BME280;39115;59.332;18.034;2023-02-13T07:38:22;101874.41;;;2.91;74.38
51715;BME280;39115;59.332;18.034;2023-02-13T07:40:43;101874.34;;;2.93;74.34
51715;BME280;39115;59.332;18.034;2023-02-13T07:43:04;101874.31;;;2.94;74.43
51715;BME280;39115;59.332;18.034;2023-02-13T07:45:24;101875.06;;;2.96;74.30
51715;BME280;39115;59.332;18.034;2023-02-13T07:47:45;101872.41;;;2.98;74.09
51715;BME280;39115;59.332;18.034;2023-02-13T07:50:07;101868.00;;;2.98;74.28
51715;BME280;39115;59.332;18.034;2023-02-13T07:52:27;101868.81;;;3.00;74.09
51715;BME280;39115;59.332;18.034;2023-02-13T07:54:48;101866.97;;;3.03;74.05
51715;BME280;39115;59.332;18.034;2023-02-13T07:57:08;101874.81;;;3.04;74.28
51715;BME280;39115;59.332;18.034;2023-02-13T07:59:29;101872.97;;;3.06;74.16
51715;BME280;39115;59.332;18.034;2023-02-13T08:01:50;101870.28;;;3.08;74.10
51715;BME280;39115;59.332;18.034;2023-02-13T08:04:10;101873.72;;;3.10;73.99
51715;BME280;39115;59.332;18.034;2023-02-13T08:06:31;101882.34;;;3.13;74.10
51715;BME280;39115;59.332;18.034;2023-02-13T08:08:51;101891.81;;;3.17;73.85
51715;BME280;39115;59.332;18.034;2023-02-13T08:11:32;101893.44;;;3.22;74.09
51715;BME280;39115;59.332;18.034;2023-02-13T08:14:11;101911.69;;;3.26;73.81
51715;BME280;39115;59.332;18.034;2023-02-13T08:16:32;101913.28;;;3.30;73.94
51715;BME280;39115;59.332;18.034;2023-02-13T08:18:52;101916.56;;;3.36;73.79
51715;BME280;39115;59.332;18.034;2023-02-13T08:21:13;101922.53;;;3.41;73.70
51715;BME280;39115;59.332;18.034;2023-02-13T08:23:34;101917.94;;;3.46;73.84
51715;BME280;39115;59.332;18.034;2023-02-13T08:25:58;101919.59;;;3.48;73.41
51715;BME280;39115;59.332;18.034;2023-02-13T08:28:18;101923.78;;;3.54;73.72
51715;BME280;39115;59.332;18.034;2023-02-13T08:30:39;101918.31;;;3.59;73.37
51715;BME280;39115;59.332;18.034;2023-02-13T08:32:59;101924.31;;;3.62;73.29
51715;BME280;39115;59.332;18.034;2023-02-13T08:35:21;101935.59;;;3.66;73.10
51715;BME280;39115;59.332;18.034;2023-02-13T08:37:43;101946.78;;;3.71;72.98
51715;BME280;39115;59.332;18.034;2023-02-13T08:40:03;101943.91;;;3.77;73.07
51715;BME280;39115;59.332;18.034;2023-02-13T08:42:24;101954.22;;;3.84;72.97
51715;BME280;39115;59.332;18.034;2023-02-13T08:44:44;101960.97;;;3.91;72.53
51715;BME280;39115;59.332;18.034;2023-02-13T08:47:05;101950.16;;;3.97;72.61
51715;BME280;39115;59.332;18.034;2023-02-13T08:49:26;101967.44;;;4.04;72.60
51715;BME280;39115;59.332;18.034;2023-02-13T08:51:47;101964.53;;;4.10;72.34
51715;BME280;39115;59.332;18.034;2023-02-13T08:54:07;101963.38;;;4.18;72.20
51715;BME280;39115;59.332;18.034;2023-02-13T08:56:28;101970.91;;;4.27;72.21
51715;BME280;39115;59.332;18.034;2023-02-13T08:58:48;101969.78;;;4.33;72.17
51715;BME280;39115;59.332;18.034;2023-02-13T09:01:09;101964.25;;;4.39;71.90
51715;BME280;39115;59.332;18.034;2023-02-13T09:03:30;101961.31;;;4.47;71.90
51715;BME280;39115;59.332;18.034;2023-02-13T09:05:50;101967.09;;;4.55;71.70
51715;BME280;39115;59.332;18.034;2023-02-13T09:08:11;101970.34;;;4.62;71.43
51715;BME280;39115;59.332;18.034;2023-02-13T09:10:33;101971.72;;;4.70;70.97
51715;BME280;39115;59.332;18.034;2023-02-13T09:12:53;101966.94;;;4.79;71.34
51715;BME280;39115;59.332;18.034;2023-02-13T09:15:14;101970.13;;;4.87;71.38
51715;BME280;39115;59.332;18.034;2023-02-13T09:17:34;101968.00;;;4.95;70.71
51715;BME280;39115;59.332;18.034;2023-02-13T09:19:55;101964.16;;;5.02;70.73
51715;BME280;39115;59.332;18.034;2023-02-13T09:22:15;101962.94;;;5.10;70.74
51715;BME280;39115;59.332;18.034;2023-02-13T09:24:36;101970.53;;;5.17;70.47
51715;BME280;39115;59.332;18.034;2023-02-13T09:26:56;101954.41;;;5.23;70.28
51715;BME280;39115;59.332;18.034;2023-02-13T09:29:17;101947.00;;;5.32;70.32
51715;BME280;39115;59.332;18.034;2023-02-13T09:31:37;101952.69;;;5.42;69.98
51715;BME280;39115;59.332;18.034;2023-02-13T09:33:58;101965.38;;;5.52;70.14
51715;BME280;39115;59.332;18.034;2023-02-13T09:36:23;101965.03;;;5.60;69.83
51715;BME280;39115;59.332;18.034;2023-02-13T09:38:45;101959.38;;;5.68;69.73
51715;BME280;39115;59.332;18.034;2023-02-13T09:41:21;101950.25;;;5.75;69.37
51715;BME280;39115;59.332;18.034;2023-02-13T09:43:44;101952.66;;;5.80;69.14
51715;BME280;39115;59.332;18.034;2023-02-13T09:46:47;101955.03;;;5.86;68.80
51715;BME280;39115;59.332;18.034;2023-02-13T09:49:10;101954.00;;;5.89;68.59
51715;BME280;39115;59.332;18.034;2023-02-13T09:51:31;101953.84;;;5.92;68.67
51715;BME280;39115;59.332;18.034;2023-02-13T09:53:56;101954.56;;;5.95;68.33
51715;BME280;39115;59.332;18.034;2023-02-13T09:59:00;101956.94;;;6.01;68.74
51715;BME280;39115;59.332;18.034;2023-02-13T10:01:40;101952.41;;;6.04;68.73
51715;BME280;39115;59.332;18.034;2023-02-13T10:09:34;101967.22;;;6.08;67.79
51715;BME280;39115;59.332;18.034;2023-02-13T10:17:37;101967.69;;;6.16;67.66
51715;BME280;39115;59.332;18.034;2023-02-13T10:20:04;101968.31;;;6.21;67.52
51715;BME280;39115;59.332;18.034;2023-02-13T10:22:29;101973.38;;;6.26;67.47
51715;BME280;39115;59.332;18.034;2023-02-13T10:25:02;101973.16;;;6.30;67.25
51715;BME280;39115;59.332;18.034;2023-02-13T10:27:27;101986.28;;;6.32;66.63
51715;BME280;39115;59.332;18.034;2023-02-13T10:29:59;101977.19;;;6.38;66.75
51715;BME280;39115;59.332;18.034;2023-02-13T10:32:29;101980.53;;;6.41;66.38
51715;BME280;39115;59.332;18.034;2023-02-13T10:34:57;101979.28;;;6.48;66.69
51715;BME280;39115;59.332;18.034;2023-02-13T10:37:20;101981.78;;;6.52;66.57
51715;BME280;39115;59.332;18.034;2023-02-13T10:39:44;101997.50;;;6.55;65.93
51715;BME280;39115;59.332;18.034;2023-02-13T10:42:22;101993.06;;;6.55;66.49
51715;BME280;39115;59.332;18.034;2023-02-13T10:50:19;101998.88;;;6.62;65.44
51715;BME280;39115;59.332;18.034;2023-02-13T11:00:40;101993.13;;;6.71;65.33
51715;BME280;39115;59.332;18.034;2023-02-13T11:03:03;102007.94;;;6.75;65.39
51715;BME280;39115;59.332;18.034;2023-02-13T11:05:44;101999.66;;;6.82;65.42
51715;BME280;39115;59.332;18.034;2023-02-13T11:10:35;102003.16;;;6.82;64.79
51715;BME280;39115;59.332;18.034;2023-02-13T11:12:56;102007.53;;;6.83;64.92
51715;BME280;39115;59.332;18.034;2023-02-13T11:15:28;101996.78;;;6.86;64.46
51715;BME280;39115;59.332;18.034;2023-02-13T11:17:49;102010.03;;;6.86;64.82
51715;BME280;39115;59.332;18.034;2023-02-13T11:22:46;102015.13;;;6.89;64.58
51715;BME280;39115;59.332;18.034;2023-02-13T11:25:24;102028.22;;;6.92;64.61
51715;BME280;39115;59.332;18.034;2023-02-13T11:27:46;102022.78;;;6.95;64.54
51715;BME280;39115;59.332;18.034;2023-02-13T11:32:59;102025.72;;;7.07;64.03
51715;BME280;39115;59.332;18.034;2023-02-13T11:35:34;102025.31;;;7.15;64.12
51715;BME280;39115;59.332;18.034;2023-02-13T11:38:22;102025.91;;;7.20;64.15
51715;BME280;39115;59.332;18.034;2023-02-13T11:40:45;102024.13;;;7.20;63.63
51715;BME280;39115;59.332;18.034;2023-02-13T11:43:07;102027.53;;;7.22;63.38
51715;BME280;39115;59.332;18.034;2023-02-13T11:45:34;102021.41;;;7.22;63.39
51715;BME280;39115;59.332;18.034;2023-02-13T11:47:55;102023.97;;;7.23;63.19
51715;BME280;39115;59.332;18.034;2023-02-13T11:50:32;102017.56;;;7.27;63.27
51715;BME280;39115;59.332;18.034;2023-02-13T11:53:06;102024.50;;;7.30;62.88
51715;BME280;39115;59.332;18.034;2023-02-13T11:55:32;102038.25;;;7.37;62.96
51715;BME280;39115;59.332;18.034;2023-02-13T12:00:37;102038.88;;;7.42;62.88
51715;BME280;39115;59.332;18.034;2023-02-13T12:03:23;102052.81;;;7.46;62.52
51715;BME280;39115;59.332;18.034;2023-02-13T12:06:05;102049.28;;;7.45;62.55
51715;BME280;39115;59.332;18.034;2023-02-13T12:08:26;102048.38;;;7.46;62.57
51715;BME280;39115;59.332;18.034;2023-02-13T12:10:47;102050.88;;;7.49;62.35
51715;BME280;39115;59.332;18.034;2023-02-13T12:13:34;102049.06;;;7.50;62.51
51715;BME280;39115;59.332;18.034;2023-02-13T12:16:01;102049.06;;;7.50;61.80
51715;BME280;39115;59.332;18.034;2023-02-13T12:18:31;102049.06;;;7.50;62.00
51715;BME280;39115;59.332;18.034;2023-02-13T12:24:22;102046.75;;;7.59;62.05
51715;BME280;39115;59.332;18.034;2023-02-13T12:32:20;102063.09;;;7.68;61.63
51715;BME280;39115;59.332;18.034;2023-02-13T12:47:23;102062.44;;;7.80;60.90
51715;BME280;39115;59.332;18.034;2023-02-13T12:52:48;102066.47;;;7.87;60.58
51715;BME280;39115;59.332;18.034;2023-02-13T13:01:09;102083.84;;;7.93;60.50
51715;BME280;39115;59.332;18.034;2023-02-13T13:11:15;102105.72;;;7.97;60.12
51715;BME280;39115;59.332;18.034;2023-02-13T13:14:00;102101.38;;;7.96;60.18
51715;BME280;39115;59.332;18.034;2023-02-13T13:22:06;102098.19;;;7.89;59.96
51715;BME280;39115;59.332;18.034;2023-02-13T13:26:56;102083.13;;;7.89;60.16
51715;BME280;39115;59.332;18.034;2023-02-13T13:29:21;102089.19;;;7.91;60.08
51715;BME280;39115;59.332;18.034;2023-02-13T13:31:51;102098.78;;;7.94;59.98
51715;BME280;39115;59.332;18.034;2023-02-13T13:34:19;102108.28;;;7.98;60.18
51715;BME280;39115;59.332;18.034;2023-02-13T13:36:50;102122.13;;;8.03;59.62
51715;BME280;39115;59.332;18.034;2023-02-13T13:41:53;102121.03;;;8.07;59.44
51715;BME280;39115;59.332;18.034;2023-02-13T13:46:54;102106.84;;;8.09;59.21
51715;BME280;39115;59.332;18.034;2023-02-13T13:49:47;102109.41;;;8.10;59.52
51715;BME280;39115;59.332;18.034;2023-02-13T13:54:41;102112.22;;;8.07;59.35
51715;BME280;39115;59.332;18.034;2023-02-13T13:57:04;102113.94;;;8.08;59.03
51715;BME280;39115;59.332;18.034;2023-02-13T14:04:37;102114.72;;;8.10;59.00
51715;BME280;39115;59.332;18.034;2023-02-13T14:09:40;102122.41;;;8.15;59.26
51715;BME280;39115;59.332;18.034;2023-02-13T14:14:44;102121.38;;;8.17;58.50
51715;BME280;39115;59.332;18.034;2023-02-13T14:17:12;102121.47;;;8.16;58.81
51715;BME280;39115;59.332;18.034;2023-02-13T14:24:38;102128.47;;;8.17;58.50
51715;BME280;39115;59.332;18.034;2023-02-13T14:26:58;102127.63;;;8.16;58.91
51715;BME280;39115;59.332;18.034;2023-02-13T14:29:28;102126.78;;;8.16;58.46
51715;BME280;39115;59.332;18.034;2023-02-13T14:32:27;102131.41;;;8.12;59.08
51715;BME280;39115;59.332;18.034;2023-02-13T14:34:54;102121.78;;;8.10;58.78
51715;BME280;39115;59.332;18.034;2023-02-13T14:37:23;102127.28;;;8.06;58.69
51715;BME280;39115;59.332;18.034;2023-02-13T14:42:35;102128.38;;;8.02;58.56
51715;BME280;39115;59.332;18.034;2023-02-13T14:44:58;102128.47;;;8.01;58.34
51715;BME280;39115;59.332;18.034;2023-02-13T14:47:29;102138.31;;;7.99;58.75
51715;BME280;39115;59.332;18.034;2023-02-13T14:49:51;102136.69;;;7.96;58.54
51715;BME280;39115;59.332;18.034;2023-02-13T14:52:20;102143.94;;;7.93;58.67
51715;BME280;39115;59.332;18.034;2023-02-13T14:54:52;102142.31;;;7.90;58.72
51715;BME280;39115;59.332;18.034;2023-02-13T14:57:19;102134.53;;;7.87;58.90
51715;BME280;39115;59.332;18.034;2023-02-13T14:59:46;102138.38;;;7.81;58.64
51715;BME280;39115;59.332;18.034;2023-02-13T15:05:33;102142.38;;;7.72;58.86
51715;BME280;39115;59.332;18.034;2023-02-13T15:07:37;102138.19;;;7.68;58.73
51715;BME280;39115;59.332;18.034;2023-02-13T15:10:05;102160.47;;;7.64;58.95